sensor_id;sensor_type;location;lat;lon;timestamp;pressure;altitude;pressure_sealevel;temperature;humidity
73106;BME280;61559;50.476;15.588;2023-04-30T00:00:59;97772.16;;;9.43;79.94
73106;BME280;61559;50.476;15.588;2023-04-30T00:03:33;97772.73;;;9.42;79.92
73106;BME280;61559;50.476;15.588;2023-04-30T00:06:05;97774.61;;;9.41;79.96
73106;BME280;61559;50.476;15.588;2023-04-30T00:08:36;97775.48;;;9.40;80.07
73106;BME280;61559;50.476;15.588;2023-04-30T00:11:08;97776.12;;;9.38;80.12
73106;BME280;61559;50.476;15.588;2023-04-30T00:13:39;97771.77;;;9.37;80.18
73106;BME280;61559;50.476;15.588;2023-04-30T00:16:11;97770.48;;;9.35;80.24
73106;BME280;61559;50.476;15.588;2023-04-30T00:18:42;97770.16;;;9.34;80.09
73106;BME280;61559;50.476;15.588;2023-04-30T00:21:14;97767.88;;;9.32;80.02
73106;BME280;61559;50.476;15.588;2023-04-30T00:23:45;97767.11;;;9.30;80.14
73106;BME280;61559;50.476;15.588;2023-04-30T00:26:16;97771.39;;;9.29;80.21
73106;BME280;61559;50.476;15.588;2023-04-30T00:28:47;97767.51;;;9.28;80.16
73106;BME280;61559;50.476;15.588;2023-04-30T00:31:18;97766.48;;;9.26;80.22
73106;BME280;61559;50.476;15.588;2023-04-30T00:33:50;97765.11;;;9.25;80.32
73106;BME280;61559;50.476;15.588;2023-04-30T00:36:21;97770.15;;;9.25;80.33
73106;BME280;61559;50.476;15.588;2023-04-30T00:38:53;97776.87;;;9.23;80.32
73106;BME280;61559;50.476;15.588;2023-04-30T00:41:24;97771.99;;;9.17;80.51
73106;BME280;61559;50.476;15.588;2023-04-30T00:43:55;97776.95;;;9.14;80.61
73106;BME280;61559;50.476;15.588;2023-04-30T00:46:26;97778.60;;;9.11;80.67
73106;BME280;61559;50.476;15.588;2023-04-30T00:48:58;97782.52;;;9.11;80.76
73106;BME280;61559;50.476;15.588;2023-04-30T00:51:33;97786.33;;;9.12;80.82
73106;BME280;61559;50.476;15.588;2023-04-30T00:54:05;97789.38;;;9.14;80.72
73106;BME280;61559;50.476;15.588;2023-04-30T00:56:37;97785.27;;;9.16;80.75
73106;BME280;61559;50.476;15.588;2023-04-30T00:59:08;97784.67;;;9.15;80.69
73106;BME280;61559;50.476;15.588;2023-04-30T01:01:41;97786.34;;;9.17;80.74
73106;BME280;61559;50.476;15.588;2023-04-30T01:04:13;97789.88;;;9.15;80.59
73106;BME280;61559;50.476;15.588;2023-04-30T01:06:44;97794.79;;;9.14;80.63
73106;BME280;61559;50.476;15.588;2023-04-30T01:09:16;97794.02;;;9.11;80.70
73106;BME280;61559;50.476;15.588;2023-04-30T01:14:47;97790.46;;;9.07;80.71
73106;BME280;61559;50.476;15.588;2023-04-30T01:17:25;97783.84;;;9.04;80.73
73106;BME280;61559;50.476;15.588;2023-04-30T01:19:59;97791.96;;;9.06;80.78
73106;BME280;61559;50.476;15.588;2023-04-30T01:22:49;97792.44;;;9.05;80.73
73106;BME280;61559;50.476;15.588;2023-04-30T01:25:41;97796.36;;;9.05;80.75
73106;BME280;61559;50.476;15.588;2023-04-30T01:28:15;97797.52;;;9.03;80.82
73106;BME280;61559;50.476;15.588;2023-04-30T01:30:49;97801.35;;;8.99;80.97
73106;BME280;61559;50.476;15.588;2023-04-30T01:33:21;97799.73;;;8.95;81.06
73106;BME280;61559;50.476;15.588;2023-04-30T01:36:09;97800.91;;;8.93;81.10
73106;BME280;61559;50.476;15.588;2023-04-30T01:38:54;97801.08;;;8.92;81.16
73106;BME280;61559;50.476;15.588;2023-04-30T01:41:31;97799.31;;;8.91;81.13
73106;BME280;61559;50.476;15.588;2023-04-30T01:44:15;97800.73;;;8.89;81.29
73106;BME280;61559;50.476;15.588;2023-04-30T01:46:57;97802.70;;;8.88;81.34
73106;BME280;61559;50.476;15.588;2023-04-30T01:49:35;97803.69;;;8.87;81.42
73106;BME280;61559;50.476;15.588;2023-04-30T01:52:21;97807.61;;;8.87;81.41
73106;BME280;61559;50.476;15.588;2023-04-30T01:55:03;97804.77;;;8.87;81.52
73106;BME280;61559;50.476;15.588;2023-04-30T01:57:38;97805.40;;;8.87;81.55
73106;BME280;61559;50.476;15.588;2023-04-30T02:00:12;97804.62;;;8.84;81.50
73106;BME280;61559;50.476;15.588;2023-04-30T02:02:49;97804.92;;;8.82;81.53
73106;BME280;61559;50.476;15.588;2023-04-30T02:05:21;97813.55;;;8.80;81.67
73106;BME280;61559;50.476;15.588;2023-04-30T02:07:52;97815.38;;;8.78;81.66
73106;BME280;61559;50.476;15.588;2023-04-30T02:10:25;97820.05;;;8.78;81.61
73106;BME280;61559;50.476;15.588;2023-04-30T02:12:58;97824.77;;;8.78;81.72
73106;BME280;61559;50.476;15.588;2023-04-30T02:15:29;97829.27;;;8.79;81.75
73106;BME280;61559;50.476;15.588;2023-04-30T02:18:00;97829.39;;;8.78;81.78
73106;BME280;61559;50.476;15.588;2023-04-30T02:20:32;97833.60;;;8.79;81.88
73106;BME280;61559;50.476;15.588;2023-04-30T02:23:12;97835.16;;;8.78;81.83
73106;BME280;61559;50.476;15.588;2023-04-30T02:25:43;97831.33;;;8.73;81.86
73106;BME280;61559;50.476;15.588;2023-04-30T02:28:14;97841.39;;;8.76;82.04
73106;BME280;61559;50.476;15.588;2023-04-30T02:30:45;97840.48;;;8.76;81.97
73106;BME280;61559;50.476;15.588;2023-04-30T02:33:14;97845.34;;;8.74;81.84
73106;BME280;61559;50.476;15.588;2023-04-30T02:35:46;97843.30;;;8.71;81.88
73106;BME280;61559;50.476;15.588;2023-04-30T02:38:17;97843.94;;;8.69;81.96
73106;BME280;61559;50.476;15.588;2023-04-30T02:40:48;97848.27;;;8.66;82.03
73106;BME280;61559;50.476;15.588;2023-04-30T02:43:20;97851.25;;;8.64;81.93
73106;BME280;61559;50.476;15.588;2023-04-30T02:45:51;97847.34;;;8.62;82.12
73106;BME280;61559;50.476;15.588;2023-04-30T02:48:22;97853.80;;;8.60;82.14
73106;BME280;61559;50.476;15.588;2023-04-30T02:50:53;97855.45;;;8.59;82.16
73106;BME280;61559;50.476;15.588;2023-04-30T02:53:23;97855.70;;;8.60;82.25
73106;BME280;61559;50.476;15.588;2023-04-30T02:55:54;97862.61;;;8.57;82.34
73106;BME280;61559;50.476;15.588;2023-04-30T02:58:25;97859.61;;;8.56;82.32
73106;BME280;61559;50.476;15.588;2023-04-30T03:00:56;97864.29;;;8.59;82.29
73106;BME280;61559;50.476;15.588;2023-04-30T03:03:28;97866.57;;;8.57;82.27
73106;BME280;61559;50.476;15.588;2023-04-30T03:05:59;97870.51;;;8.55;82.34
73106;BME280;61559;50.476;15.588;2023-04-30T03:08:30;97872.25;;;8.55;82.37
73106;BME280;61559;50.476;15.588;2023-04-30T03:11:00;97871.73;;;8.55;82.45
73106;BME280;61559;50.476;15.588;2023-04-30T03:13:31;97872.93;;;8.51;82.47
73106;BME280;61559;50.476;15.588;2023-04-30T03:16:03;97877.53;;;8.49;82.63
73106;BME280;61559;50.476;15.588;2023-04-30T03:18:34;97875.39;;;8.49;82.66
73106;BME280;61559;50.476;15.588;2023-04-30T03:21:05;97877.70;;;8.51;82.68
73106;BME280;61559;50.476;15.588;2023-04-30T03:23:36;97876.81;;;8.52;82.55
73106;BME280;61559;50.476;15.588;2023-04-30T03:26:07;97875.52;;;8.56;82.46
73106;BME280;61559;50.476;15.588;2023-04-30T03:28:39;97870.63;;;8.60;81.88
73106;BME280;61559;50.476;15.588;2023-04-30T03:31:10;97872.38;;;8.66;82.11
73106;BME280;61559;50.476;15.588;2023-04-30T03:33:41;97875.02;;;8.64;82.18
73106;BME280;61559;50.476;15.588;2023-04-30T03:36:13;97873.39;;;8.61;82.26
73106;BME280;61559;50.476;15.588;2023-04-30T03:38:44;97877.91;;;8.61;81.86
73106;BME280;61559;50.476;15.588;2023-04-30T03:41:13;97876.36;;;8.62;81.13
73106;BME280;61559;50.476;15.588;2023-04-30T03:43:44;97877.73;;;8.65;79.98
73106;BME280;61559;50.476;15.588;2023-04-30T03:46:14;97878.45;;;8.72;79.50
73106;BME280;61559;50.476;15.588;2023-04-30T03:48:45;97875.74;;;8.76;79.27
73106;BME280;61559;50.476;15.588;2023-04-30T03:51:14;97877.02;;;8.83;78.52
73106;BME280;61559;50.476;15.588;2023-04-30T03:53:44;97882.83;;;8.85;78.13
73106;BME280;61559;50.476;15.588;2023-04-30T03:56:15;97887.25;;;8.88;77.62
73106;BME280;61559;50.476;15.588;2023-04-30T03:58:46;97890.91;;;8.94;77.52
73106;BME280;61559;50.476;15.588;2023-04-30T04:01:17;97897.09;;;8.98;77.70
73106;BME280;61559;50.476;15.588;2023-04-30T04:03:48;97900.61;;;8.99;77.97
73106;BME280;61559;50.476;15.588;2023-04-30T04:06:20;97899.47;;;8.97;78.31
73106;BME280;61559;50.476;15.588;2023-04-30T04:08:52;97903.17;;;8.97;78.72
73106;BME280;61559;50.476;15.588;2023-04-30T04:11:23;97902.98;;;8.96;78.84
73106;BME280;61559;50.476;15.588;2023-04-30T04:13:55;97902.19;;;8.95;78.74
73106;BME280;61559;50.476;15.588;2023-04-30T04:16:24;97904.76;;;8.92;78.95
73106;BME280;61559;50.476;15.588;2023-04-30T04:18:56;97905.66;;;8.90;79.11
73106;BME280;61559;50.476;15.588;2023-04-30T04:21:27;97911.61;;;8.87;79.24
73106;BME280;61559;50.476;15.588;2023-04-30T04:23:58;97915.84;;;8.84;79.37
73106;BME280;61559;50.476;15.588;2023-04-30T04:26:34;97916.73;;;8.83;79.66
73106;BME280;61559;50.476;15.588;2023-04-30T04:29:05;97920.48;;;8.82;79.63
73106;BME280;61559;50.476;15.588;2023-04-30T04:31:37;97921.80;;;8.84;79.71
73106;BME280;61559;50.476;15.588;2023-04-30T04:34:10;97927.54;;;8.84;79.62
73106;BME280;61559;50.476;15.588;2023-04-30T04:36:41;97928.60;;;8.82;79.30
73106;BME280;61559;50.476;15.588;2023-04-30T04:39:13;97938.94;;;8.85;78.75
73106;BME280;61559;50.476;15.588;2023-04-30T04:41:45;97938.52;;;8.85;78.52
73106;BME280;61559;50.476;15.588;2023-04-30T04:44:14;97945.92;;;8.88;77.75
73106;BME280;61559;50.476;15.588;2023-04-30T04:46:45;97947.38;;;8.90;77.58
73106;BME280;61559;50.476;15.588;2023-04-30T04:49:17;97952.61;;;8.96;77.14
73106;BME280;61559;50.476;15.588;2023-04-30T04:51:48;97960.39;;;9.03;77.36
73106;BME280;61559;50.476;15.588;2023-04-30T04:54:19;97962.67;;;9.08;77.06
73106;BME280;61559;50.476;15.588;2023-04-30T04:56:50;97957.70;;;9.14;77.03
73106;BME280;61559;50.476;15.588;2023-04-30T04:59:22;97959.27;;;9.18;76.67
73106;BME280;61559;50.476;15.588;2023-04-30T05:01:53;97961.23;;;9.19;76.26
73106;BME280;61559;50.476;15.588;2023-04-30T05:04:24;97964.61;;;9.21;76.32
73106;BME280;61559;50.476;15.588;2023-04-30T05:06:56;97969.40;;;9.23;76.29
73106;BME280;61559;50.476;15.588;2023-04-30T05:09:27;97967.86;;;9.28;76.12
73106;BME280;61559;50.476;15.588;2023-04-30T05:11:58;97964.15;;;9.32;75.91
73106;BME280;61559;50.476;15.588;2023-04-30T05:14:29;97966.97;;;9.38;76.17
73106;BME280;61559;50.476;15.588;2023-04-30T05:17:01;97966.63;;;9.42;75.50
73106;BME280;61559;50.476;15.588;2023-04-30T05:19:32;97965.33;;;9.45;75.35
73106;BME280;61559;50.476;15.588;2023-04-30T05:22:03;97967.65;;;9.50;74.78
73106;BME280;61559;50.476;15.588;2023-04-30T05:24:35;97965.35;;;9.56;74.49
73106;BME280;61559;50.476;15.588;2023-04-30T05:27:06;97970.48;;;9.63;74.12
73106;BME280;61559;50.476;15.588;2023-04-30T05:29:37;97975.17;;;9.71;73.68
73106;BME280;61559;50.476;15.588;2023-04-30T05:32:08;97977.80;;;9.79;73.56
73106;BME280;61559;50.476;15.588;2023-04-30T05:34:39;97977.65;;;9.86;73.50
73106;BME280;61559;50.476;15.588;2023-04-30T05:37:08;97985.71;;;9.97;73.37
73106;BME280;61559;50.476;15.588;2023-04-30T05:39:41;97981.30;;;10.06;72.28
73106;BME280;61559;50.476;15.588;2023-04-30T05:42:12;97983.20;;;10.15;71.61
73106;BME280;61559;50.476;15.588;2023-04-30T05:44:41;97980.02;;;10.23;71.16
73106;BME280;61559;50.476;15.588;2023-04-30T05:47:12;97984.71;;;10.30;71.09
73106;BME280;61559;50.476;15.588;2023-04-30T05:49:44;97986.45;;;10.36;68.94
73106;BME280;61559;50.476;15.588;2023-04-30T05:52:15;97985.30;;;10.36;68.88
73106;BME280;61559;50.476;15.588;2023-04-30T05:54:47;97983.15;;;10.30;68.40
73106;BME280;61559;50.476;15.588;2023-04-30T05:57:19;97988.45;;;10.36;68.57
73106;BME280;61559;50.476;15.588;2023-04-30T05:59:50;97991.44;;;10.40;67.87
73106;BME280;61559;50.476;15.588;2023-04-30T06:02:22;97991.42;;;10.44;67.74
73106;BME280;61559;50.476;15.588;2023-04-30T06:04:54;97990.30;;;10.48;67.31
73106;BME280;61559;50.476;15.588;2023-04-30T06:07:25;97996.64;;;10.55;67.57
73106;BME280;61559;50.476;15.588;2023-04-30T06:09:56;97993.11;;;10.63;67.83
73106;BME280;61559;50.476;15.588;2023-04-30T06:12:28;97991.90;;;10.72;67.80
73106;BME280;61559;50.476;15.588;2023-04-30T06:14:59;97991.11;;;10.81;66.50
73106;BME280;61559;50.476;15.588;2023-04-30T06:17:31;97989.98;;;10.88;64.85
73106;BME280;61559;50.476;15.588;2023-04-30T06:20:03;97988.59;;;10.92;64.75
73106;BME280;61559;50.476;15.588;2023-04-30T06:22:35;97986.48;;;10.99;65.36
73106;BME280;61559;50.476;15.588;2023-04-30T06:25:08;97990.85;;;11.04;64.45
73106;BME280;61559;50.476;15.588;2023-04-30T06:27:39;97993.13;;;11.08;63.69
73106;BME280;61559;50.476;15.588;2023-04-30T06:30:12;97993.33;;;11.13;62.72
73106;BME280;61559;50.476;15.588;2023-04-30T06:32:43;97994.57;;;11.21;61.76
73106;BME280;61559;50.476;15.588;2023-04-30T06:35:14;97994.88;;;11.28;61.99
73106;BME280;61559;50.476;15.588;2023-04-30T06:37:46;97999.89;;;11.29;58.69
73106;BME280;61559;50.476;15.588;2023-04-30T06:40:17;98004.38;;;11.29;58.87
73106;BME280;61559;50.476;15.588;2023-04-30T06:42:48;98002.66;;;11.32;59.03
73106;BME280;61559;50.476;15.588;2023-04-30T06:45:20;98003.15;;;11.34;59.17
73106;BME280;61559;50.476;15.588;2023-04-30T06:47:51;98000.64;;;11.36;58.93
73106;BME280;61559;50.476;15.588;2023-04-30T06:50:22;97998.64;;;11.36;58.38
73106;BME280;61559;50.476;15.588;2023-04-30T06:52:53;98004.75;;;11.31;57.78
73106;BME280;61559;50.476;15.588;2023-04-30T06:55:25;98006.02;;;11.31;58.96
73106;BME280;61559;50.476;15.588;2023-04-30T06:57:56;98004.25;;;11.36;57.56
73106;BME280;61559;50.476;15.588;2023-04-30T07:00:28;98009.56;;;11.36;57.25
73106;BME280;61559;50.476;15.588;2023-04-30T07:02:59;98005.98;;;11.37;57.84
73106;BME280;61559;50.476;15.588;2023-04-30T07:05:32;98015.86;;;11.42;56.93
73106;BME280;61559;50.476;15.588;2023-04-30T07:08:05;98013.52;;;11.46;55.93
73106;BME280;61559;50.476;15.588;2023-04-30T07:10:36;98010.52;;;11.52;56.01
73106;BME280;61559;50.476;15.588;2023-04-30T07:13:07;98016.69;;;11.61;56.32
73106;BME280;61559;50.476;15.588;2023-04-30T07:15:37;98011.30;;;11.66;54.08
73106;BME280;61559;50.476;15.588;2023-04-30T07:18:09;98013.59;;;11.61;53.89
73106;BME280;61559;50.476;15.588;2023-04-30T07:20:40;98016.35;;;11.62;54.81
73106;BME280;61559;50.476;15.588;2023-04-30T07:23:11;98011.45;;;11.67;55.56
73106;BME280;61559;50.476;15.588;2023-04-30T07:25:42;98005.98;;;11.75;56.36
73106;BME280;61559;50.476;15.588;2023-04-30T07:28:13;98011.39;;;11.84;56.12
73106;BME280;61559;50.476;15.588;2023-04-30T07:30:44;98013.91;;;11.88;56.46
73106;BME280;61559;50.476;15.588;2023-04-30T07:33:15;98021.96;;;11.90;55.95
73106;BME280;61559;50.476;15.588;2023-04-30T07:35:47;98023.03;;;11.89;55.56
73106;BME280;61559;50.476;15.588;2023-04-30T07:38:18;98023.84;;;11.83;55.71
73106;BME280;61559;50.476;15.588;2023-04-30T07:40:50;98025.27;;;11.84;56.39
73106;BME280;61559;50.476;15.588;2023-04-30T07:43:21;98026.20;;;11.92;56.53
73106;BME280;61559;50.476;15.588;2023-04-30T07:45:52;98025.15;;;12.01;57.62
73106;BME280;61559;50.476;15.588;2023-04-30T07:48:23;98023.79;;;12.09;54.64
73106;BME280;61559;50.476;15.588;2023-04-30T07:50:54;98028.70;;;12.03;52.86
73106;BME280;61559;50.476;15.588;2023-04-30T07:53:26;98035.81;;;12.04;54.41
73106;BME280;61559;50.476;15.588;2023-04-30T07:55:57;98032.95;;;12.10;54.87
73106;BME280;61559;50.476;15.588;2023-04-30T07:58:28;98031.88;;;12.16;54.89
73106;BME280;61559;50.476;15.588;2023-04-30T08:00:59;98028.05;;;12.19;54.20
73106;BME280;61559;50.476;15.588;2023-04-30T08:03:30;98035.86;;;12.21;52.85
73106;BME280;61559;50.476;15.588;2023-04-30T08:06:02;98039.30;;;12.11;52.46
73106;BME280;61559;50.476;15.588;2023-04-30T08:08:33;98040.20;;;11.98;53.16
73106;BME280;61559;50.476;15.588;2023-04-30T08:11:04;98047.13;;;11.94;53.65
73106;BME280;61559;50.476;15.588;2023-04-30T08:13:35;98050.38;;;11.95;52.81
73106;BME280;61559;50.476;15.588;2023-04-30T08:16:06;98044.88;;;11.96;51.45
73106;BME280;61559;50.476;15.588;2023-04-30T08:18:37;98042.88;;;12.00;51.98
73106;BME280;61559;50.476;15.588;2023-04-30T08:21:13;98045.65;;;12.04;52.68
73106;BME280;61559;50.476;15.588;2023-04-30T08:23:44;98038.64;;;12.09;53.04
73106;BME280;61559;50.476;15.588;2023-04-30T08:26:15;98038.14;;;12.13;53.70
73106;BME280;61559;50.476;15.588;2023-04-30T08:28:46;98039.54;;;12.17;51.10
73106;BME280;61559;50.476;15.588;2023-04-30T08:31:18;98039.86;;;12.16;52.42
73106;BME280;61559;50.476;15.588;2023-04-30T08:33:49;98041.70;;;12.19;51.24
73106;BME280;61559;50.476;15.588;2023-04-30T08:36:20;98037.88;;;12.18;51.26
73106;BME280;61559;50.476;15.588;2023-04-30T08:38:51;98034.46;;;12.14;50.85
73106;BME280;61559;50.476;15.588;2023-04-30T08:41:26;98035.30;;;12.15;52.50
73106;BME280;61559;50.476;15.588;2023-04-30T08:44:01;98039.78;;;12.18;52.15
73106;BME280;61559;50.476;15.588;2023-04-30T08:46:36;98042.48;;;12.19;51.15
73106;BME280;61559;50.476;15.588;2023-04-30T08:49:08;98040.48;;;12.22;51.33
73106;BME280;61559;50.476;15.588;2023-04-30T08:51:40;98043.48;;;12.25;50.50
73106;BME280;61559;50.476;15.588;2023-04-30T08:54:12;98044.05;;;12.26;50.34
73106;BME280;61559;50.476;15.588;2023-04-30T08:56:45;98043.80;;;12.23;50.00
73106;BME280;61559;50.476;15.588;2023-04-30T08:59:16;98040.64;;;12.24;52.00
73106;BME280;61559;50.476;15.588;2023-04-30T09:01:47;98039.91;;;12.32;51.99
73106;BME280;61559;50.476;15.588;2023-04-30T09:04:22;98035.73;;;12.41;50.44
73106;BME280;61559;50.476;15.588;2023-04-30T09:06:54;98038.36;;;12.43;49.60
73106;BME280;61559;50.476;15.588;2023-04-30T09:09:36;98040.33;;;12.42;49.31
73106;BME280;61559;50.476;15.588;2023-04-30T09:12:15;98045.02;;;12.39;48.87
73106;BME280;61559;50.476;15.588;2023-04-30T09:15:02;98043.50;;;12.35;48.57
73106;BME280;61559;50.476;15.588;2023-04-30T09:17:33;98039.73;;;12.27;48.55
73106;BME280;61559;50.476;15.588;2023-04-30T09:20:10;98034.48;;;12.24;49.36
73106;BME280;61559;50.476;15.588;2023-04-30T09:22:40;98036.41;;;12.27;49.92
73106;BME280;61559;50.476;15.588;2023-04-30T09:25:12;98035.11;;;12.27;48.77
73106;BME280;61559;50.476;15.588;2023-04-30T09:27:43;98041.82;;;12.27;49.39
73106;BME280;61559;50.476;15.588;2023-04-30T09:30:30;98040.45;;;12.30;48.80
73106;BME280;61559;50.476;15.588;2023-04-30T09:33:02;98033.25;;;12.32;49.46
73106;BME280;61559;50.476;15.588;2023-04-30T09:35:34;98044.50;;;12.36;50.51
73106;BME280;61559;50.476;15.588;2023-04-30T09:38:07;98045.02;;;12.41;49.54
73106;BME280;61559;50.476;15.588;2023-04-30T09:40:56;98044.38;;;12.44;51.22
73106;BME280;61559;50.476;15.588;2023-04-30T09:43:27;98039.36;;;12.49;50.35
73106;BME280;61559;50.476;15.588;2023-04-30T09:46:00;98038.87;;;12.59;50.78
73106;BME280;61559;50.476;15.588;2023-04-30T09:48:33;98044.73;;;12.68;49.91
73106;BME280;61559;50.476;15.588;2023-04-30T09:51:06;98041.81;;;12.70;49.35
73106;BME280;61559;50.476;15.588;2023-04-30T09:53:38;98045.77;;;12.71;49.03
73106;BME280;61559;50.476;15.588;2023-04-30T09:56:12;98041.57;;;12.72;49.37
73106;BME280;61559;50.476;15.588;2023-04-30T09:58:50;98049.92;;;12.72;49.27
73106;BME280;61559;50.476;15.588;2023-04-30T10:01:26;98051.90;;;12.73;48.68
73106;BME280;61559;50.476;15.588;2023-04-30T10:03:58;98049.08;;;12.74;47.86
73106;BME280;61559;50.476;15.588;2023-04-30T10:06:29;98044.70;;;12.77;48.90
73106;BME280;61559;50.476;15.588;2023-04-30T10:09:06;98046.91;;;12.85;48.66
73106;BME280;61559;50.476;15.588;2023-04-30T10:11:41;98044.43;;;12.87;47.57
73106;BME280;61559;50.476;15.588;2023-04-30T10:14:14;98038.98;;;12.86;48.56
73106;BME280;61559;50.476;15.588;2023-04-30T10:16:53;98040.96;;;12.91;49.19
73106;BME280;61559;50.476;15.588;2023-04-30T10:19:29;98034.05;;;12.93;47.33
73106;BME280;61559;50.476;15.588;2023-04-30T10:22:07;98037.02;;;12.92;47.23
73106;BME280;61559;50.476;15.588;2023-04-30T10:24:54;98034.32;;;12.96;48.01
73106;BME280;61559;50.476;15.588;2023-04-30T10:27:27;98026.67;;;12.99;48.02
73106;BME280;61559;50.476;15.588;2023-04-30T10:30:00;98028.88;;;13.07;49.07
73106;BME280;61559;50.476;15.588;2023-04-30T10:32:35;98029.16;;;13.12;48.25
73106;BME280;61559;50.476;15.588;2023-04-30T10:35:17;98024.03;;;13.20;48.23
73106;BME280;61559;50.476;15.588;2023-04-30T10:37:56;98030.65;;;13.23;46.35
73106;BME280;61559;50.476;15.588;2023-04-30T10:40:28;98016.79;;;13.18;46.84
73106;BME280;61559;50.476;15.588;2023-04-30T10:43:06;98017.28;;;13.20;47.62
73106;BME280;61559;50.476;15.588;2023-04-30T10:45:44;98018.27;;;13.22;46.44
73106;BME280;61559;50.476;15.588;2023-04-30T10:48:17;98017.34;;;13.25;46.90
73106;BME280;61559;50.476;15.588;2023-04-30T10:50:57;98019.44;;;13.29;46.19
73106;BME280;61559;50.476;15.588;2023-04-30T10:53:30;98015.84;;;13.28;46.07
73106;BME280;61559;50.476;15.588;2023-04-30T10:56:03;98013.77;;;13.30;46.97
73106;BME280;61559;50.476;15.588;2023-04-30T10:58:38;98011.50;;;13.36;48.69
73106;BME280;61559;50.476;15.588;2023-04-30T11:01:12;98013.38;;;13.44;47.01
73106;BME280;61559;50.476;15.588;2023-04-30T11:04:04;98006.80;;;13.44;45.05
73106;BME280;61559;50.476;15.588;2023-04-30T11:06:59;98013.44;;;13.44;45.59
73106;BME280;61559;50.476;15.588;2023-04-30T11:09:40;98010.32;;;13.46;46.04
73106;BME280;61559;50.476;15.588;2023-04-30T11:12:13;98006.67;;;13.51;46.69
73106;BME280;61559;50.476;15.588;2023-04-30T11:14:45;98006.38;;;13.55;45.23
73106;BME280;61559;50.476;15.588;2023-04-30T11:17:23;98008.67;;;13.59;43.94
73106;BME280;61559;50.476;15.588;2023-04-30T11:19:59;98007.59;;;13.58;45.16
73106;BME280;61559;50.476;15.588;2023-04-30T11:22:31;98007.00;;;13.60;44.87
73106;BME280;61559;50.476;15.588;2023-04-30T11:25:07;98004.27;;;13.63;45.09
73106;BME280;61559;50.476;15.588;2023-04-30T11:27:41;98000.87;;;13.67;45.81
73106;BME280;61559;50.476;15.588;2023-04-30T11:30:14;97999.34;;;13.78;46.98
73106;BME280;61559;50.476;15.588;2023-04-30T11:32:47;97994.05;;;13.92;47.41
73106;BME280;61559;50.476;15.588;2023-04-30T11:35:19;97994.15;;;14.07;48.05
73106;BME280;61559;50.476;15.588;2023-04-30T11:37:53;97989.07;;;14.19;46.96
73106;BME280;61559;50.476;15.588;2023-04-30T11:40:25;97995.94;;;14.33;47.04
73106;BME280;61559;50.476;15.588;2023-04-30T11:42:56;97995.38;;;14.42;46.58
73106;BME280;61559;50.476;15.588;2023-04-30T11:45:28;97983.73;;;14.50;46.01
73106;BME280;61559;50.476;15.588;2023-04-30T11:47:59;97987.80;;;14.56;44.65
73106;BME280;61559;50.476;15.588;2023-04-30T11:50:33;97987.12;;;14.60;44.76
73106;BME280;61559;50.476;15.588;2023-04-30T11:53:12;97981.05;;;14.63;44.81
73106;BME280;61559;50.476;15.588;2023-04-30T11:55:43;97980.66;;;14.67;44.89
73106;BME280;61559;50.476;15.588;2023-04-30T11:58:14;97983.88;;;14.67;42.79
73106;BME280;61559;50.476;15.588;2023-04-30T12:00:45;97985.21;;;14.65;42.15
73106;BME280;61559;50.476;15.588;2023-04-30T12:03:17;97978.74;;;14.62;42.02
73106;BME280;61559;50.476;15.588;2023-04-30T12:05:48;97975.00;;;14.59;41.45
73106;BME280;61559;50.476;15.588;2023-04-30T12:08:19;97976.98;;;14.56;42.40
73106;BME280;61559;50.476;15.588;2023-04-30T12:10:50;97979.80;;;14.57;42.23
73106;BME280;61559;50.476;15.588;2023-04-30T12:13:21;97980.13;;;14.59;43.00
73106;BME280;61559;50.476;15.588;2023-04-30T12:15:59;97975.79;;;14.65;43.71
73106;BME280;61559;50.476;15.588;2023-04-30T12:18:33;97976.35;;;14.70;43.20
73106;BME280;61559;50.476;15.588;2023-04-30T12:21:04;97974.81;;;14.74;43.63
73106;BME280;61559;50.476;15.588;2023-04-30T12:23:36;97974.55;;;14.82;43.54
73106;BME280;61559;50.476;15.588;2023-04-30T12:26:07;97975.35;;;14.87;43.30
73106;BME280;61559;50.476;15.588;2023-04-30T12:28:38;97971.36;;;14.91;42.05
73106;BME280;61559;50.476;15.588;2023-04-30T12:31:10;97971.27;;;14.91;42.15
73106;BME280;61559;50.476;15.588;2023-04-30T12:33:41;97968.70;;;14.96;42.77
73106;BME280;61559;50.476;15.588;2023-04-30T12:36:13;97969.27;;;15.00;41.53
73106;BME280;61559;50.476;15.588;2023-04-30T12:38:45;97964.20;;;15.04;42.37
73106;BME280;61559;50.476;15.588;2023-04-30T12:41:17;97964.48;;;15.14;42.09
73106;BME280;61559;50.476;15.588;2023-04-30T12:43:50;97969.13;;;15.24;42.72
73106;BME280;61559;50.476;15.588;2023-04-30T12:46:27;97966.61;;;15.34;42.59
73106;BME280;61559;50.476;15.588;2023-04-30T12:48:58;97967.60;;;15.40;42.12
73106;BME280;61559;50.476;15.588;2023-04-30T12:51:30;97965.31;;;15.40;40.27
73106;BME280;61559;50.476;15.588;2023-04-30T12:54:03;97967.17;;;15.38;40.35
73106;BME280;61559;50.476;15.588;2023-04-30T12:56:34;97968.64;;;15.35;40.05
73106;BME280;61559;50.476;15.588;2023-04-30T12:59:15;97964.54;;;15.32;40.55
73106;BME280;61559;50.476;15.588;2023-04-30T13:01:46;97960.88;;;15.29;40.85
73106;BME280;61559;50.476;15.588;2023-04-30T13:04:18;97957.81;;;15.28;42.25
73106;BME280;61559;50.476;15.588;2023-04-30T13:06:49;97953.80;;;15.37;42.29
73106;BME280;61559;50.476;15.588;2023-04-30T13:09:21;97953.46;;;15.51;43.31
73106;BME280;61559;50.476;15.588;2023-04-30T13:11:52;97952.88;;;15.61;42.67
73106;BME280;61559;50.476;15.588;2023-04-30T13:14:24;97949.63;;;15.62;41.76
73106;BME280;61559;50.476;15.588;2023-04-30T13:16:55;97942.15;;;15.60;41.49
73106;BME280;61559;50.476;15.588;2023-04-30T13:19:26;97941.98;;;15.58;42.52
73106;BME280;61559;50.476;15.588;2023-04-30T13:21:59;97936.23;;;15.63;42.28
73106;BME280;61559;50.476;15.588;2023-04-30T13:24:30;97929.17;;;15.65;42.24
73106;BME280;61559;50.476;15.588;2023-04-30T13:27:01;97929.49;;;15.71;43.58